Terminal Aerodrome Forecast
Issued by NWS

Home | Current Version | Previous Version | Text Only | Print | Product List | Glossary On
Versions: 1 2 3 4 5 6 7 8 9 10 11 12
834
FTUS45 KABQ 122331
TAFFMN
TAF
KFMN 122331Z 1300/1324 26007KT P6SM SKC
     FM130700 08007KT P6SM SKC
     FM132000 26007KT P6SM SCT200=

USA.gov is the U.S. government's official web portal to all federal, state and local government web resources and services.